Fairdale, WV (25839)

6:26 PM EDT on August 31, 2015 (GMT -0400)
Fairdale | | Change Station
CLOSE
Current Station
Personal Weather Station
Location: Lester, WV
Elevation: 1938 ft
Nearby Weather Stations

Elev 1938 ft 37.74 °N, 81.35 °W | Updated 3 seconds ago

Overcast
Overcast
77.4 °F
Feels Like 78 °F
N
0.0
Wind Variable Wind from North
Gusts 0.0 mph

Today
High -- | Low -- °F
--% Chance of Precip.
Yesterday
High -- | Low -- °F
Precip. -- in
6:54 AM 7:56 PM
Waning Gibbous, 93% visible
Pressure 30.08 in
Visibility 10.0 miles
Clouds Few 8500 ft
Few 10000 ft
Heat Index 78 °F
Dew Point 51 °F
Humidity 40%
Rainfall 0.17 in
Snow Depth Not available.
UV 2 out of 12
Pollen 9.10 out of 12
Air Quality Not available.
Flu Activity Not available.
METAR KBKW 312151Z AUTO 00000KT 10SM FEW085 FEW100 24/16 A3017 RMK AO2 SLP185 T02440156
Pressure 30.08 in
Visibility 10.0 miles
Clouds Few 8500 ft
Few 10000 ft
Heat Index 78 °F
Dew Point 51 °F
Humidity 40%
Rainfall 0.17 in
Snow Depth Not available.
UV 2 out of 12
Pollen 9.10 out of 12
Air Quality Not available.
Flu Activity Not available.
METAR KBKW 312151Z AUTO 00000KT 10SM FEW085 FEW100 24/16 A3017 RMK AO2 SLP185 T02440156

10-Day Weather Forecast

×

Almanac

Astronomy

Aug. 31, 2015 Rise Set
Actual Time
Civil Twilight
Nautical Twilight
Astronomical Twilight
Moon
Length of Visible Light
Length of Day
Tomorrow will be .
, % of the Moon is Illuminated

Today's Extremes

State Highs State Lows

Community

WunderPhotos

Upload Photos

1,851,390 photos uploaded!

WunderBlogs® & News

Nearby

Air Quality

  Air Quality AQ Index Pollutant
Not available.

Snow Depth

Station Depth Elevation

Earthquake Activity

City Distance Mag. Time & Date
Minimum magnitude displayed is 2.5.

Coastal Water Temperatures

Place Temperature

Stations

Nearby Weather Stations

Station Location Temp. Windchill Dew Point Humidity Wind Precip. Elev Updated Type